Time;durP1;ratioP1;P1;durP2;ratioP2;P2;SDS_P1;SDS_P2;PMS_P1;PMS_P2;Temp;Humidity;BMP_temperature;BMP_pressure;BME280_temperature;BME280_humidity;BME280_pressure;Samples;Min_cycle;Max_cycle;Signal;HPM_P1;HPM_P2
2022/05/23 00:02:01;;;;;;;8.55;2.90;;;;;;;;;;4974175;28;20087;-86
2022/05/23 00:04:27;;;;;;;9.85;2.60;;;;;;;;;;4947039;28;20027;-87
2022/05/23 00:06:55;;;;;;;8.68;2.50;;;;;;;;;;4938521;28;20121;-88
2022/05/23 00:09:21;;;;;;;4.72;2.67;;;;;;;;;;4942498;28;20533;-87
2022/05/23 00:11:47;;;;;;;6.15;2.80;;;;;;;;;;4940673;28;20031;-87
2022/05/23 00:14:14;;;;;;;8.25;2.55;;;;;;;;;;4967380;28;20042;-87
2022/05/23 00:16:42;;;;;;;8.25;3.30;;;;;;;;;;4945037;28;20046;-88
2022/05/23 00:19:09;;;;;;;5.70;2.90;;;;;;;;;;4964042;28;20471;-88
2022/05/23 00:21:36;;;;;;;16.10;3.95;;;;;;;;;;4961767;28;20035;-86
2022/05/23 00:24:02;;;;;;;10.57;3.35;;;;;;;;;;4942530;28;20563;-87
2022/05/23 00:26:28;;;;;;;5.35;2.70;;;;;;;;;;4945748;28;20067;-87
2022/05/23 00:28:54;;;;;;;6.55;3.35;;;;;;;;;;4945004;28;20121;-88
2022/05/23 00:31:20;;;;;;;6.05;3.35;;;;;;;;;;4946766;28;20031;-88
2022/05/23 00:36:32;;;;;;;7.32;2.92;;;;;;;;;;4963091;28;20126;-88
2022/05/23 00:38:58;;;;;;;10.27;3.75;;;;;;;;;;4951472;28;20027;-88
2022/05/23 00:44:28;;;;;;;11.82;3.30;;;;;;;;;;4962242;28;20077;-88
2022/05/23 00:46:59;;;;;;;5.40;2.88;;;;;;;;;;4948599;28;20143;-87
2022/05/23 00:49:33;;;;;;;7.63;3.53;;;;;;;;;;4950153;28;20532;-86
2022/05/23 00:52:01;;;;;;;8.55;3.95;;;;;;;;;;4968282;28;20085;-86
2022/05/23 00:54:30;;;;;;;10.30;3.13;;;;;;;;;;4958780;28;20035;-87
2022/05/23 00:56:56;;;;;;;8.05;3.63;;;;;;;;;;4963444;28;20128;-86
2022/05/23 00:59:26;;;;;;;7.22;4.93;;;;;;;;;;4966726;28;20256;-88
2022/05/23 01:01:52;;;;;;;7.90;3.63;;;;;;;;;;4978573;28;20037;-88
2022/05/23 01:04:18;;;;;;;7.03;3.63;;;;;;;;;;4969863;28;20038;-87
2022/05/23 01:06:44;;;;;;;8.68;3.45;;;;;;;;;;4963572;28;20057;-87
2022/05/23 01:09:11;;;;;;;11.90;4.25;;;;;;;;;;4978709;28;20035;-88
2022/05/23 01:11:38;;;;;;;11.73;3.97;;;;;;;;;;4982039;28;20049;-87
2022/05/23 01:14:05;;;;;;;8.77;3.97;;;;;;;;;;4967654;28;20456;-88
2022/05/23 01:16:32;;;;;;;6.25;4.07;;;;;;;;;;4962895;28;20042;-87
2022/05/23 01:18:58;;;;;;;6.72;3.63;;;;;;;;;;4983208;28;20065;-87
2022/05/23 01:21:34;;;;;;;11.40;4.45;;;;;;;;;;4983102;28;20028;-88
2022/05/23 01:24:20;;;;;;;5.05;4.25;;;;;;;;;;4968896;28;20093;-88
2022/05/23 01:26:48;;;;;;;8.67;4.57;;;;;;;;;;4982672;28;20052;-88
2022/05/23 01:29:14;;;;;;;7.57;4.75;;;;;;;;;;4970679;28;21213;-88
2022/05/23 01:31:41;;;;;;;7.38;4.22;;;;;;;;;;4969866;28;20376;-87
2022/05/23 01:34:07;;;;;;;8.45;4.72;;;;;;;;;;4969980;28;20034;-88
2022/05/23 01:36:34;;;;;;;10.48;4.95;;;;;;;;;;4969032;28;20551;-88
2022/05/23 01:39:00;;;;;;;7.72;4.85;;;;;;;;;;4971180;28;20502;-88
2022/05/23 01:41:26;;;;;;;10.25;4.90;;;;;;;;;;4970050;28;20035;-87
2022/05/23 01:43:53;;;;;;;10.43;5.25;;;;;;;;;;4970904;28;20023;-88
2022/05/23 01:46:19;;;;;;;10.25;4.75;;;;;;;;;;4966624;28;20052;-88
2022/05/23 01:48:46;;;;;;;9.35;5.55;;;;;;;;;;4970459;28;20034;-87
2022/05/23 01:51:12;;;;;;;8.55;5.60;;;;;;;;;;4983485;28;20152;-87
2022/05/23 01:53:38;;;;;;;13.68;4.93;;;;;;;;;;4970093;28;20072;-87
2022/05/23 01:56:08;;;;;;;12.32;5.78;;;;;;;;;;4968855;28;20569;-88
2022/05/23 02:01:19;;;;;;;10.07;5.05;;;;;;;;;;4965447;28;20096;-87
2022/05/23 02:03:46;;;;;;;6.85;4.88;;;;;;;;;;4946625;28;20051;-88
2022/05/23 02:06:13;;;;;;;10.18;4.85;;;;;;;;;;4943961;28;20031;-88
2022/05/23 02:08:39;;;;;;;12.30;4.68;;;;;;;;;;4948409;28;22379;-88
2022/05/23 02:11:06;;;;;;;13.68;4.88;;;;;;;;;;4952034;28;20050;-87
2022/05/23 02:13:36;;;;;;;8.30;4.15;;;;;;;;;;4952223;28;20161;-87
2022/05/23 02:16:03;;;;;;;8.68;4.72;;;;;;;;;;4945664;28;20055;-86
2022/05/23 02:18:30;;;;;;;14.73;4.47;;;;;;;;;;4968172;28;20449;-87
2022/05/23 02:20:56;;;;;;;8.40;4.05;;;;;;;;;;4949822;28;20031;-88
2022/05/23 02:23:22;;;;;;;12.25;4.43;;;;;;;;;;4949739;28;20553;-87
2022/05/23 02:25:48;;;;;;;5.97;3.75;;;;;;;;;;4958785;28;20023;-87
2022/05/23 02:28:14;;;;;;;13.57;4.38;;;;;;;;;;4947848;28;20038;-87
2022/05/23 02:30:40;;;;;;;7.80;3.85;;;;;;;;;;4949690;28;20038;-86
2022/05/23 02:33:06;;;;;;;8.95;3.85;;;;;;;;;;4960546;28;20326;-87
2022/05/23 02:35:33;;;;;;;10.52;4.15;;;;;;;;;;4949845;28;20244;-87
2022/05/23 02:37:59;;;;;;;9.82;4.07;;;;;;;;;;4948846;28;20034;-87
2022/05/23 02:40:25;;;;;;;15.55;4.10;;;;;;;;;;4950947;28;20019;-87
2022/05/23 02:42:51;;;;;;;7.15;4.72;;;;;;;;;;4948464;28;20046;-88
2022/05/23 02:45:17;;;;;;;8.77;4.20;;;;;;;;;;4953762;28;20026;-86
2022/05/23 02:47:43;;;;;;;5.88;4.22;;;;;;;;;;4951851;28;20026;-87
2022/05/23 02:50:17;;;;;;;9.75;4.03;;;;;;;;;;4966725;28;20086;-87
2022/05/23 02:52:44;;;;;;;9.82;3.95;;;;;;;;;;4965126;28;20035;-87
2022/05/23 02:55:11;;;;;;;11.20;3.83;;;;;;;;;;4947102;28;20089;-87
2022/05/23 02:57:43;;;;;;;8.65;4.00;;;;;;;;;;4964738;28;20042;-87
2022/05/23 03:00:10;;;;;;;7.18;3.60;;;;;;;;;;4981898;28;20034;-85
2022/05/23 03:05:20;;;;;;;7.95;3.45;;;;;;;;;;4982659;28;20133;-86
2022/05/23 03:07:46;;;;;;;6.78;3.75;;;;;;;;;;4981847;28;20069;-88
2022/05/23 03:10:12;;;;;;;7.43;3.67;;;;;;;;;;4979528;28;20038;-88
2022/05/23 03:12:38;;;;;;;9.07;3.42;;;;;;;;;;4978887;28;20483;-87
2022/05/23 03:15:06;;;;;;;13.30;4.05;;;;;;;;;;4981663;28;20035;-88
2022/05/23 03:17:32;;;;;;;6.60;3.58;;;;;;;;;;4984399;28;20018;-87
2022/05/23 03:19:59;;;;;;;10.45;3.85;;;;;;;;;;4970304;28;20031;-87
2022/05/23 03:27:54;;;;;;;8.27;4.32;;;;;;;;;;4982004;28;20501;-86
2022/05/23 03:30:21;;;;;;;6.80;3.55;;;;;;;;;;4969589;28;20026;-87
2022/05/23 03:32:47;;;;;;;6.32;3.33;;;;;;;;;;4984450;28;20049;-87
2022/05/23 03:35:13;;;;;;;14.68;5.85;;;;;;;;;;4967262;28;20301;-87
2022/05/23 03:37:39;;;;;;;9.23;3.70;;;;;;;;;;4982689;28;20032;-86
2022/05/23 03:40:06;;;;;;;8.43;3.55;;;;;;;;;;4963784;28;20038;-88
2022/05/23 03:42:33;;;;;;;11.95;3.92;;;;;;;;;;4969748;28;20062;-88
2022/05/23 03:44:59;;;;;;;11.35;3.60;;;;;;;;;;4981252;28;20031;-88
2022/05/23 03:47:25;;;;;;;9.70;3.85;;;;;;;;;;4970930;28;20445;-86
2022/05/23 03:49:51;;;;;;;10.45;3.85;;;;;;;;;;4983826;28;20513;-86
2022/05/23 03:52:17;;;;;;;7.25;3.45;;;;;;;;;;4967418;28;20481;-86
2022/05/23 03:54:43;;;;;;;12.18;3.90;;;;;;;;;;4976643;28;20473;-86
2022/05/23 03:57:16;;;;;;;8.95;3.60;;;;;;;;;;4979566;28;20324;-86
2022/05/23 03:59:45;;;;;;;10.43;3.60;;;;;;;;;;4993235;28;20090;-87
2022/05/23 04:02:11;;;;;;;8.98;3.35;;;;;;;;;;4998830;28;20239;-85
2022/05/23 04:04:37;;;;;;;8.30;3.78;;;;;;;;;;4993083;28;20050;-87
2022/05/23 04:07:05;;;;;;;6.82;3.53;;;;;;;;;;4986983;28;20038;-85
2022/05/23 04:09:32;;;;;;;8.02;3.58;;;;;;;;;;4994538;28;20077;-85
2022/05/23 04:11:58;;;;;;;8.63;3.60;;;;;;;;;;4989194;28;20506;-88
2022/05/23 04:14:28;;;;;;;6.80;3.58;;;;;;;;;;4973762;28;20395;-88
2022/05/23 04:16:54;;;;;;;9.70;3.80;;;;;;;;;;4983154;28;20257;-88
2022/05/23 04:19:20;;;;;;;7.72;3.47;;;;;;;;;;4982599;28;20038;-88
2022/05/23 04:21:47;;;;;;;5.70;3.63;;;;;;;;;;4971384;28;20130;-88
2022/05/23 04:24:13;;;;;;;15.52;4.15;;;;;;;;;;4982461;28;20387;-88
2022/05/23 04:26:39;;;;;;;13.05;4.03;;;;;;;;;;4968284;28;20128;-87
2022/05/23 04:29:09;;;;;;;13.80;3.97;;;;;;;;;;4969605;28;20065;-88
2022/05/23 04:31:36;;;;;;;7.53;3.63;;;;;;;;;;4968344;28;20058;-88
2022/05/23 04:36:48;;;;;;;7.37;4.20;;;;;;;;;;4980504;28;20061;-87
2022/05/23 04:39:14;;;;;;;7.93;3.78;;;;;;;;;;4987393;28;20092;-86
2022/05/23 04:41:40;;;;;;;6.22;3.35;;;;;;;;;;4969297;28;20560;-88
2022/05/23 04:44:07;;;;;;;9.38;3.63;;;;;;;;;;4966522;28;20026;-88
2022/05/23 04:46:33;;;;;;;9.20;3.53;;;;;;;;;;4970344;28;20084;-88
2022/05/23 04:51:44;;;;;;;5.85;3.50;;;;;;;;;;4982488;28;20505;-88
2022/05/23 04:54:10;;;;;;;8.73;4.32;;;;;;;;;;4980724;28;20042;-88
2022/05/23 04:56:39;;;;;;;8.60;3.75;;;;;;;;;;4966882;28;21461;-88
2022/05/23 04:59:06;;;;;;;9.35;4.15;;;;;;;;;;4980940;28;20023;-88
2022/05/23 05:01:32;;;;;;;8.80;4.13;;;;;;;;;;4981896;28;20030;-87
2022/05/23 05:03:58;;;;;;;12.13;4.60;;;;;;;;;;4970298;28;20086;-87
2022/05/23 05:06:24;;;;;;;6.88;4.15;;;;;;;;;;4965348;28;20026;-89
2022/05/23 05:08:50;;;;;;;6.43;3.70;;;;;;;;;;4968066;28;20139;-87
2022/05/23 05:11:17;;;;;;;7.43;4.38;;;;;;;;;;4984989;28;20040;-86
2022/05/23 05:13:44;;;;;;;12.23;4.05;;;;;;;;;;4985883;28;20022;-86
2022/05/23 05:16:12;;;;;;;8.45;4.63;;;;;;;;;;4965745;28;20485;-87
2022/05/23 05:18:38;;;;;;;7.78;3.58;;;;;;;;;;4966724;28;20089;-87
2022/05/23 05:21:09;;;;;;;5.80;3.55;;;;;;;;;;4970094;28;20033;-86
2022/05/23 05:23:35;;;;;;;11.80;4.43;;;;;;;;;;4963913;28;20180;-87
2022/05/23 05:26:02;;;;;;;11.38;4.25;;;;;;;;;;4966116;28;20047;-86
2022/05/23 05:28:29;;;;;;;11.77;4.35;;;;;;;;;;4984669;28;20030;-87
2022/05/23 05:31:03;;;;;;;8.15;4.57;;;;;;;;;;4967042;28;20037;-85
2022/05/23 05:33:36;;;;;;;8.20;5.13;;;;;;;;;;4970710;28;20148;-87
2022/05/23 05:36:04;;;;;;;19.05;4.72;;;;;;;;;;4970362;28;20433;-87
2022/05/23 05:38:36;;;;;;;15.73;5.00;;;;;;;;;;4965359;28;20389;-86
2022/05/23 05:41:13;;;;;;;23.73;4.28;;;;;;;;;;4965675;28;20108;-86
2022/05/23 05:43:46;;;;;;;16.90;4.28;;;;;;;;;;4965064;28;20030;-86
2022/05/23 05:46:15;;;;;;;15.75;5.20;;;;;;;;;;4983110;28;20030;-87
2022/05/23 05:48:45;;;;;;;17.02;4.90;;;;;;;;;;4979426;28;20078;-87
2022/05/23 05:51:12;;;;;;;11.40;4.38;;;;;;;;;;4966102;28;20116;-86
2022/05/23 05:53:39;;;;;;;19.65;5.22;;;;;;;;;;4976060;28;20041;-86
2022/05/23 05:56:06;;;;;;;14.07;5.28;;;;;;;;;;4965142;28;20042;-87
2022/05/23 05:58:33;;;;;;;21.42;5.18;;;;;;;;;;4961971;28;20053;-87
2022/05/23 06:00:59;;;;;;;17.05;6.38;;;;;;;;;;4965540;28;20556;-86
2022/05/23 06:03:26;;;;;;;8.02;4.50;;;;;;;;;;4963406;28;20026;-87
2022/05/23 06:11:27;;;;;;;13.75;4.70;;;;;;;;;;4985862;28;20117;-85
2022/05/23 06:13:55;;;;;;;8.85;5.43;;;;;;;;;;4991782;28;20041;-87
2022/05/23 06:16:21;;;;;;;14.95;5.22;;;;;;;;;;4970246;28;20497;-85
2022/05/23 06:18:48;;;;;;;16.83;5.47;;;;;;;;;;4979825;28;20467;-87
2022/05/23 06:21:14;;;;;;;16.23;4.95;;;;;;;;;;4971862;28;20026;-87
2022/05/23 06:23:41;;;;;;;14.50;5.57;;;;;;;;;;4975798;28;20029;-86
2022/05/23 06:26:08;;;;;;;11.43;5.72;;;;;;;;;;4986895;28;20022;-86
2022/05/23 06:28:37;;;;;;;10.80;5.88;;;;;;;;;;4975720;28;20112;-87
2022/05/23 06:31:03;;;;;;;15.90;6.10;;;;;;;;;;4974015;28;20035;-86
2022/05/23 06:33:30;;;;;;;12.80;6.40;;;;;;;;;;4984301;28;20062;-88
2022/05/23 06:35:57;;;;;;;15.40;6.20;;;;;;;;;;4964440;28;20027;-87
2022/05/23 06:38:24;;;;;;;12.20;5.97;;;;;;;;;;4983672;28;20077;-87
2022/05/23 06:40:51;;;;;;;9.85;5.93;;;;;;;;;;4971896;28;20610;-87
2022/05/23 06:43:18;;;;;;;13.95;5.78;;;;;;;;;;4972680;28;20069;-88
2022/05/23 06:45:45;;;;;;;13.13;6.15;;;;;;;;;;4972324;28;20030;-87
2022/05/23 06:48:11;;;;;;;13.07;5.45;;;;;;;;;;4970980;28;20121;-87
2022/05/23 06:50:37;;;;;;;18.73;6.50;;;;;;;;;;4974592;28;20104;-85
2022/05/23 06:53:03;;;;;;;16.08;5.93;;;;;;;;;;4965848;28;20096;-88
2022/05/23 06:55:29;;;;;;;11.27;6.35;;;;;;;;;;4989619;28;20038;-87
2022/05/23 06:57:56;;;;;;;11.05;5.88;;;;;;;;;;4953104;28;20047;-87
2022/05/23 07:00:22;;;;;;;13.23;6.65;;;;;;;;;;4952928;28;20451;-86
2022/05/23 07:02:48;;;;;;;10.07;5.63;;;;;;;;;;4953593;28;20557;-88
2022/05/23 07:13:29;;;;;;;11.77;6.13;;;;;;;;;;4966408;28;20041;-87
2022/05/23 07:15:55;;;;;;;13.13;5.25;;;;;;;;;;4949259;28;20062;-88
2022/05/23 07:18:22;;;;;;;10.18;5.10;;;;;;;;;;4970597;28;20035;-87
2022/05/23 07:20:48;;;;;;;10.02;5.72;;;;;;;;;;4957146;28;20023;-88
2022/05/23 07:23:15;;;;;;;12.13;6.07;;;;;;;;;;4967685;28;20035;-85
2022/05/23 07:25:41;;;;;;;14.65;5.90;;;;;;;;;;4982655;28;20054;-85
2022/05/23 07:28:08;;;;;;;8.48;5.50;;;;;;;;;;4976923;28;20050;-86
2022/05/23 07:30:34;;;;;;;14.05;6.30;;;;;;;;;;4970014;28;20110;-86
2022/05/23 07:33:00;;;;;;;10.82;5.50;;;;;;;;;;4967047;28;20406;-87
2022/05/23 07:35:26;;;;;;;15.75;5.70;;;;;;;;;;4964064;28;20050;-87
2022/05/23 07:37:53;;;;;;;9.43;5.00;;;;;;;;;;4963951;28;20023;-87
2022/05/23 07:40:20;;;;;;;9.90;5.40;;;;;;;;;;4951040;28;20050;-87
2022/05/23 07:42:47;;;;;;;12.18;4.95;;;;;;;;;;4949392;28;20031;-86
2022/05/23 07:45:14;;;;;;;8.80;5.32;;;;;;;;;;4960829;28;20027;-87
2022/05/23 07:47:40;;;;;;;16.48;5.75;;;;;;;;;;4965085;28;20039;-86
2022/05/23 07:50:07;;;;;;;9.25;4.95;;;;;;;;;;4962234;28;20047;-87
2022/05/23 07:52:33;;;;;;;13.23;5.07;;;;;;;;;;4964229;28;20440;-88
2022/05/23 08:00:32;;;;;;;18.58;6.07;;;;;;;;;;4984252;28;22185;-87
2022/05/23 08:03:09;;;;;;;10.48;5.88;;;;;;;;;;4982903;28;20106;-88
2022/05/23 08:05:35;;;;;;;10.65;5.82;;;;;;;;;;4968020;28;20822;-88
2022/05/23 08:08:01;;;;;;;11.05;5.50;;;;;;;;;;4969343;28;20064;-88
2022/05/23 08:10:27;;;;;;;14.13;5.70;;;;;;;;;;4982640;28;20026;-87
2022/05/23 08:12:55;;;;;;;9.13;4.80;;;;;;;;;;4980775;28;20026;-88
2022/05/23 08:15:22;;;;;;;8.25;4.45;;;;;;;;;;4969028;28;20034;-87
2022/05/23 08:17:48;;;;;;;9.05;4.72;;;;;;;;;;4972879;28;20034;-87
2022/05/23 08:20:15;;;;;;;14.45;5.22;;;;;;;;;;4987936;28;20022;-87
2022/05/23 08:22:41;;;;;;;7.68;4.72;;;;;;;;;;4963181;28;20128;-87
2022/05/23 08:25:07;;;;;;;8.45;4.70;;;;;;;;;;4964536;28;20553;-82
2022/05/23 08:27:34;;;;;;;10.90;5.00;;;;;;;;;;4962527;28;20088;-82
2022/05/23 08:30:01;;;;;;;13.73;6.20;;;;;;;;;;4973547;28;20055;-82
2022/05/23 08:32:28;;;;;;;10.77;5.03;;;;;;;;;;4984499;28;20040;-82
2022/05/23 08:34:54;;;;;;;7.13;4.50;;;;;;;;;;4980640;28;20030;-82
2022/05/23 08:37:20;;;;;;;10.93;5.47;;;;;;;;;;4984188;28;20042;-82
2022/05/23 08:39:47;;;;;;;12.65;5.15;;;;;;;;;;4964580;28;20041;-82
2022/05/23 08:42:33;;;;;;;8.35;5.55;;;;;;;;;;4964354;28;20528;-83
2022/05/23 08:45:14;;;;;;;12.38;5.15;;;;;;;;;;4962906;28;20405;-82
2022/05/23 08:48:04;;;;;;;14.13;6.03;;;;;;;;;;4978569;28;20332;-82
2022/05/23 08:50:46;;;;;;;12.40;4.50;;;;;;;;;;4965731;28;20045;-83
2022/05/23 08:53:32;;;;;;;10.40;5.03;;;;;;;;;;4981274;28;20038;-82
2022/05/23 08:56:05;;;;;;;10.00;5.57;;;;;;;;;;4934095;28;20561;-82
2022/05/23 08:58:31;;;;;;;12.02;5.05;;;;;;;;;;4968534;28;20514;-82
2022/05/23 09:00:59;;;;;;;12.35;4.93;;;;;;;;;;4968529;28;20022;-83
2022/05/23 09:03:34;;;;;;;9.18;4.93;;;;;;;;;;4964238;28;20477;-83
2022/05/23 09:06:05;;;;;;;11.07;6.05;;;;;;;;;;4966476;28;20059;-82
2022/05/23 09:08:34;;;;;;;11.85;4.85;;;;;;;;;;4963683;28;20466;-82
2022/05/23 09:11:04;;;;;;;12.50;4.85;;;;;;;;;;4959660;28;20041;-82
2022/05/23 09:13:34;;;;;;;15.98;4.90;;;;;;;;;;4966021;28;20397;-83
2022/05/23 09:16:04;;;;;;;10.98;5.35;;;;;;;;;;4969702;28;20551;-83
2022/05/23 09:18:51;;;;;;;10.35;5.07;;;;;;;;;;4969036;28;20045;-82
2022/05/23 09:21:17;;;;;;;14.15;5.50;;;;;;;;;;4968382;28;20439;-83
2022/05/23 09:23:51;;;;;;;19.02;5.13;;;;;;;;;;4975713;28;20473;-83
2022/05/23 09:26:25;;;;;;;13.43;6.32;;;;;;;;;;4966834;28;20041;-82
2022/05/23 09:28:51;;;;;;;12.20;5.07;;;;;;;;;;4970756;28;20034;-83
2022/05/23 09:31:37;;;;;;;13.35;5.82;;;;;;;;;;4958498;28;20034;-82
2022/05/23 09:34:04;;;;;;;13.57;4.28;;;;;;;;;;4962192;28;20401;-82
2022/05/23 09:36:32;;;;;;;11.77;4.55;;;;;;;;;;4962921;28;20093;-83
2022/05/23 09:39:00;;;;;;;15.23;5.80;;;;;;;;;;4967533;28;20045;-82
2022/05/23 09:41:27;;;;;;;9.43;4.28;;;;;;;;;;4973233;28;20049;-83
2022/05/23 09:49:46;;;;;;;7.57;3.33;;;;;;;;;;4989365;28;20044;-83
2022/05/23 09:52:19;;;;;;;6.90;3.45;;;;;;;;;;4966663;28;20519;-82
2022/05/23 09:54:48;;;;;;;5.85;3.00;;;;;;;;;;4985836;28;20030;-83
2022/05/23 09:57:32;;;;;;;5.30;2.95;;;;;;;;;;4960808;28;20061;-83
2022/05/23 10:00:00;;;;;;;8.93;3.55;;;;;;;;;;4984029;28;20038;-83
2022/05/23 10:02:38;;;;;;;7.68;3.35;;;;;;;;;;4969693;28;20495;-83
2022/05/23 10:05:21;;;;;;;8.13;3.47;;;;;;;;;;4977861;28;20489;-83
2022/05/23 10:07:49;;;;;;;5.93;3.08;;;;;;;;;;4979900;28;20464;-83
2022/05/23 10:10:34;;;;;;;7.82;2.90;;;;;;;;;;4981485;28;20510;-83
2022/05/23 10:13:18;;;;;;;9.40;3.63;;;;;;;;;;4967188;28;20445;-84
2022/05/23 10:15:46;;;;;;;8.60;3.10;;;;;;;;;;4970071;28;20512;-83
2022/05/23 10:18:26;;;;;;;6.80;3.38;;;;;;;;;;4968749;28;20027;-84
2022/05/23 10:20:53;;;;;;;11.77;3.40;;;;;;;;;;4967808;28;20030;-83
2022/05/23 10:23:21;;;;;;;6.72;3.50;;;;;;;;;;4985499;28;20034;-84
2022/05/23 10:25:59;;;;;;;5.13;3.13;;;;;;;;;;4967554;28;20023;-83
2022/05/23 10:28:49;;;;;;;10.60;4.10;;;;;;;;;;4971835;28;20031;-83
2022/05/23 10:31:22;;;;;;;7.20;3.53;;;;;;;;;;4962221;28;20034;-83
2022/05/23 10:33:53;;;;;;;6.28;3.60;;;;;;;;;;4970007;28;20041;-84
2022/05/23 10:36:21;;;;;;;8.68;3.25;;;;;;;;;;4978498;28;21059;-83
2022/05/23 10:42:11;;;;;;;6.07;3.13;;;;;;;;;;4978212;28;20069;-82
2022/05/23 10:44:43;;;;;;;5.38;3.25;;;;;;;;;;4978023;28;20037;-82
2022/05/23 10:47:30;;;;;;;10.85;2.90;;;;;;;;;;4981226;28;20422;-83
2022/05/23 10:49:56;;;;;;;3.63;2.33;;;;;;;;;;4977411;28;20477;-83
2022/05/23 10:52:28;;;;;;;3.20;2.58;;;;;;;;;;4960300;28;20034;-82
2022/05/23 10:55:12;;;;;;;6.38;3.78;;;;;;;;;;4958044;28;20034;-83
2022/05/23 10:57:59;;;;;;;4.88;2.97;;;;;;;;;;4980098;28;20086;-82
2022/05/23 11:00:35;;;;;;;6.35;2.83;;;;;;;;;;4968453;28;20034;-83
2022/05/23 11:03:05;;;;;;;5.95;2.88;;;;;;;;;;4956561;28;20058;-83
2022/05/23 11:05:58;;;;;;;4.95;2.95;;;;;;;;;;4970591;28;20501;-82
2022/05/23 11:08:27;;;;;;;3.58;2.35;;;;;;;;;;4966702;28;20485;-83
2022/05/23 11:11:00;;;;;;;7.90;2.75;;;;;;;;;;4979390;28;20041;-83
2022/05/23 11:13:45;;;;;;;9.98;3.63;;;;;;;;;;4984449;28;20496;-83
2022/05/23 11:16:11;;;;;;;5.72;2.80;;;;;;;;;;4964424;28;20535;-87
2022/05/23 11:18:40;;;;;;;5.85;3.08;;;;;;;;;;4966882;28;20038;-88
2022/05/23 11:21:08;;;;;;;11.80;3.60;;;;;;;;;;4960828;28;20520;-89
2022/05/23 11:23:39;;;;;;;4.78;2.47;;;;;;;;;;4969289;28;20026;-83
2022/05/23 11:26:17;;;;;;;4.57;2.85;;;;;;;;;;4980991;28;20608;-83
2022/05/23 11:34:33;;;;;;;5.05;2.30;;;;;;;;;;4982244;28;20060;-82
2022/05/23 11:39:44;;;;;;;4.35;2.08;;;;;;;;;;4983517;28;20034;-83
2022/05/23 11:42:30;;;;;;;6.95;2.20;;;;;;;;;;4965275;28;20404;-84
2022/05/23 11:47:52;;;;;;;3.88;2.00;;;;;;;;;;4978616;28;20041;-83
2022/05/23 11:50:18;;;;;;;6.03;2.35;;;;;;;;;;4959953;28;20401;-83
2022/05/23 11:52:48;;;;;;;4.97;2.05;;;;;;;;;;4971851;28;20041;-84
2022/05/23 11:55:34;;;;;;;4.38;2.15;;;;;;;;;;4983544;28;20026;-83
2022/05/23 11:58:19;;;;;;;4.28;2.17;;;;;;;;;;4963269;28;20417;-82
2022/05/23 12:01:01;;;;;;;2.77;1.70;;;;;;;;;;4964463;28;20125;-83
2022/05/23 12:03:27;;;;;;;2.92;1.90;;;;;;;;;;4967103;28;20710;-82
2022/05/23 12:06:12;;;;;;;5.88;2.00;;;;;;;;;;4965640;28;20080;-82
2022/05/23 12:08:39;;;;;;;5.88;2.17;;;;;;;;;;4968258;28;20038;-83
2022/05/23 12:11:21;;;;;;;5.60;2.53;;;;;;;;;;4960171;28;20030;-82
2022/05/23 12:13:51;;;;;;;5.35;2.33;;;;;;;;;;4964878;28;20026;-82
2022/05/23 12:16:26;;;;;;;3.97;2.20;;;;;;;;;;4964843;28;20037;-82
2022/05/23 12:18:52;;;;;;;;;;;;;;;;;;4964600;28;20122;-83
2022/05/23 12:21:45;;;;;;;6.65;2.30;;;;;;;;;;4966387;28;20373;-82
2022/05/23 12:24:13;;;;;;;4.22;1.95;;;;;;;;;;4957290;28;20502;-84
2022/05/23 12:26:40;;;;;;;5.40;2.53;;;;;;;;;;4964540;28;20088;-84
2022/05/23 12:29:26;;;;;;;4.65;1.95;;;;;;;;;;4969737;28;20049;-84
2022/05/23 12:32:07;;;;;;;2.80;2.10;;;;;;;;;;4987026;28;20031;-84
2022/05/23 12:34:35;;;;;;;3.60;1.98;;;;;;;;;;4983556;28;20030;-83
2022/05/23 12:37:02;;;;;;;4.07;1.77;;;;;;;;;;4966182;28;20043;-83
2022/05/23 12:39:31;;;;;;;6.35;2.00;;;;;;;;;;4983960;28;20513;-85
2022/05/23 12:42:06;;;;;;;4.28;2.80;;;;;;;;;;4983821;28;20109;-82
2022/05/23 12:44:33;;;;;;;;;;;;;;;;;;4968133;28;20097;-83
2022/05/23 12:47:17;;;;;;;3.47;1.88;;;;;;;;;;4965785;28;20338;-83
2022/05/23 12:49:59;;;;;;;9.55;2.42;;;;;;;;;;4968165;28;20075;-83
2022/05/23 12:52:44;;;;;;;8.75;2.67;;;;;;;;;;4958761;28;20055;-84
2022/05/23 12:55:31;;;;;;;8.33;2.53;;;;;;;;;;4957755;28;20506;-83
2022/05/23 12:58:16;;;;;;;7.38;2.17;;;;;;;;;;4972045;28;20042;-83
2022/05/23 13:00:42;;;;;;;4.68;2.65;;;;;;;;;;4967250;28;20398;-83
2022/05/23 13:03:08;;;;;;;8.02;2.42;;;;;;;;;;4966113;28;20038;-84
2022/05/23 13:05:40;;;;;;;4.15;2.53;;;;;;;;;;4960145;28;20026;-82
2022/05/23 13:08:26;;;;;;;5.35;2.38;;;;;;;;;;4964445;28;20026;-82
2022/05/23 13:10:57;;;;;;;3.42;2.42;;;;;;;;;;4967268;28;20149;-83
2022/05/23 13:13:32;;;;;;;6.22;2.40;;;;;;;;;;4967780;28;20544;-82
2022/05/23 13:16:13;;;;;;;3.90;2.55;;;;;;;;;;4981969;28;20649;-82
2022/05/23 13:24:14;;;;;;;4.72;2.75;;;;;;;;;;4985164;28;20115;-82
2022/05/23 13:26:40;;;;;;;8.27;2.67;;;;;;;;;;4971083;28;20042;-82
2022/05/23 13:29:09;;;;;;;7.78;2.38;;;;;;;;;;4962594;28;20038;-82
2022/05/23 13:31:36;;;;;;;7.07;2.72;;;;;;;;;;4971555;28;20038;-82
2022/05/23 13:34:02;;;;;;;4.35;2.75;;;;;;;;;;4981672;28;20603;-82
2022/05/23 13:36:40;;;;;;;7.15;2.45;;;;;;;;;;4984063;28;20470;-82
2022/05/23 13:39:17;;;;;;;5.63;2.78;;;;;;;;;;4966153;28;20038;-82
2022/05/23 13:41:44;;;;;;;9.63;2.97;;;;;;;;;;4973294;28;20120;-82
2022/05/23 13:44:30;;;;;;;9.30;2.90;;;;;;;;;;4970774;28;20038;-82
2022/05/23 13:47:06;;;;;;;6.25;2.67;;;;;;;;;;4980839;28;20030;-82
2022/05/23 13:49:32;;;;;;;;;;;;;;;;;;4975333;28;20547;-82
2022/05/23 13:52:01;;;;;;;4.90;2.55;;;;;;;;;;4968157;28;20029;-82
2022/05/23 13:54:33;;;;;;;10.45;2.75;;;;;;;;;;4969364;28;20528;-82
2022/05/23 13:57:02;;;;;;;5.38;2.90;;;;;;;;;;4968091;28;20490;-82
2022/05/23 13:59:33;;;;;;;6.90;2.53;;;;;;;;;;4952161;28;20050;-82
2022/05/23 14:02:06;;;;;;;8.45;2.70;;;;;;;;;;4962468;28;20415;-82
2022/05/23 14:04:35;;;;;;;11.20;2.67;;;;;;;;;;4951606;28;20035;-82
2022/05/23 14:07:03;;;;;;;10.05;2.50;;;;;;;;;;4961239;28;20042;-82
2022/05/23 14:09:31;;;;;;;5.35;2.75;;;;;;;;;;4950326;28;20042;-83
2022/05/23 14:12:02;;;;;;;5.18;2.65;;;;;;;;;;4949763;28;20125;-82
2022/05/23 14:14:31;;;;;;;5.32;3.00;;;;;;;;;;4965908;28;20430;-82
2022/05/23 14:16:59;;;;;;;5.28;2.58;;;;;;;;;;4948054;28;20545;-83
2022/05/23 14:19:30;;;;;;;11.02;2.83;;;;;;;;;;4950424;28;20502;-82
2022/05/23 14:22:09;;;;;;;9.25;3.08;;;;;;;;;;4949272;28;20035;-82
2022/05/23 14:24:44;;;;;;;8.23;3.10;;;;;;;;;;4948061;28;20549;-82
2022/05/23 14:27:17;;;;;;;14.95;3.17;;;;;;;;;;4937726;28;20093;-81
2022/05/23 14:29:43;;;;;;;9.95;3.38;;;;;;;;;;4950740;28;20031;-81
2022/05/23 14:32:14;;;;;;;7.70;2.97;;;;;;;;;;4947232;28;20043;-80
2022/05/23 14:34:43;;;;;;;11.10;2.90;;;;;;;;;;4948684;28;20331;-81
2022/05/23 14:37:10;;;;;;;6.22;3.10;;;;;;;;;;4948951;28;20035;-81
2022/05/23 14:39:36;;;;;;;9.98;3.88;;;;;;;;;;4950839;28;20370;-81
2022/05/23 14:42:20;;;;;;;10.23;3.15;;;;;;;;;;4942506;28;20483;-81
2022/05/23 14:45:02;;;;;;;7.15;3.22;;;;;;;;;;4948949;28;20038;-81
2022/05/23 14:47:29;;;;;;;7.38;3.22;;;;;;;;;;4954297;28;20486;-81
2022/05/23 14:50:05;;;;;;;6.00;2.83;;;;;;;;;;4944324;28;20031;-81
2022/05/23 14:52:31;;;;;;;;;;;;;;;;;;4967447;28;20031;-81
2022/05/23 15:00:41;;;;;;;8.02;3.28;;;;;;;;;;4925703;28;19914;-81
2022/05/23 15:03:18;;;;;;;5.40;2.77;;;;;;;;;;4939606;28;20158;-81
2022/05/23 15:05:44;;;;;;;13.60;3.05;;;;;;;;;;4962256;28;20037;-81
2022/05/23 15:08:10;;;;;;;5.72;3.13;;;;;;;;;;4945880;28;20150;-81
2022/05/23 15:10:36;;;;;;;8.57;2.90;;;;;;;;;;4950708;28;20073;-81
2022/05/23 15:13:02;;;;;;;5.35;3.78;;;;;;;;;;4948496;28;20043;-82
2022/05/23 15:15:28;;;;;;;5.18;2.90;;;;;;;;;;4966617;28;20027;-82
2022/05/23 15:17:55;;;;;;;5.05;3.00;;;;;;;;;;4948052;28;20077;-82
2022/05/23 15:20:22;;;;;;;11.30;4.05;;;;;;;;;;4944427;28;20129;-81
2022/05/23 15:22:48;;;;;;;11.38;2.80;;;;;;;;;;4960614;28;20101;-82
2022/05/23 15:25:14;;;;;;;9.98;3.20;;;;;;;;;;4945474;28;20494;-82
2022/05/23 15:27:41;;;;;;;5.70;2.72;;;;;;;;;;4966614;28;20042;-81
2022/05/23 15:30:10;;;;;;;5.53;3.80;;;;;;;;;;4963304;28;20061;-83
2022/05/23 15:32:37;;;;;;;6.95;3.58;;;;;;;;;;4966180;28;20038;-82
2022/05/23 15:35:03;;;;;;;8.10;3.05;;;;;;;;;;4946482;28;20054;-81
2022/05/23 15:37:30;;;;;;;5.65;3.00;;;;;;;;;;4960576;28;20446;-82
2022/05/23 15:39:56;;;;;;;7.13;2.90;;;;;;;;;;4947102;28;20058;-81
2022/05/23 15:42:28;;;;;;;11.10;3.00;;;;;;;;;;4943785;28;20318;-81
2022/05/23 15:44:55;;;;;;;8.52;3.13;;;;;;;;;;4948096;28;20026;-81
2022/05/23 15:47:26;;;;;;;10.57;3.30;;;;;;;;;;4949434;28;20741;-82
2022/05/23 15:49:52;;;;;;;7.60;3.55;;;;;;;;;;4947815;28;20712;-81
2022/05/23 15:52:18;;;;;;;8.10;3.22;;;;;;;;;;4948717;28;20058;-82
2022/05/23 15:54:45;;;;;;;5.03;3.33;;;;;;;;;;4960170;28;20055;-82
2022/05/23 15:57:11;;;;;;;5.30;3.00;;;;;;;;;;4961804;28;20069;-82
2022/05/23 15:59:38;;;;;;;13.80;4.20;;;;;;;;;;4950350;28;20053;-82
2022/05/23 16:02:09;;;;;;;9.40;3.20;;;;;;;;;;4948755;28;20077;-82
2022/05/23 16:04:35;;;;;;;5.90;3.58;;;;;;;;;;4950089;28;20122;-81
2022/05/23 16:07:01;;;;;;;7.40;4.00;;;;;;;;;;4946064;28;20302;-81